createdAt,value
2022-12-21T00:01:18.621Z,20.23
2022-12-21T00:03:46.262Z,22.43
2022-12-21T00:06:13.999Z,22.87
2022-12-21T00:08:45.864Z,24.03
2022-12-21T00:11:13.922Z,26.07
2022-12-21T00:13:42.657Z,26.37
2022-12-21T00:16:18.192Z,27.20
2022-12-21T00:18:45.341Z,20.23
2022-12-21T00:21:17.341Z,26.23
2022-12-21T00:23:45.433Z,29.33
2022-12-21T00:26:13.781Z,23.87
2022-12-21T00:28:40.925Z,24.03
2022-12-21T00:31:12.437Z,24.00
2022-12-21T00:33:40.191Z,23.23
2022-12-21T00:36:09.019Z,28.10
2022-12-21T00:38:35.711Z,21.37
2022-12-21T00:41:04.682Z,28.00
2022-12-21T00:43:33.395Z,25.70
2022-12-21T00:46:00.278Z,28.67
2022-12-21T00:48:28.392Z,25.17
2022-12-21T00:50:54.892Z,23.03
2022-12-21T00:53:21.638Z,22.90
2022-12-21T00:55:56.829Z,24.23
2022-12-21T00:58:24.811Z,31.07
2022-12-21T01:00:55.866Z,23.63
2022-12-21T01:03:23.747Z,24.77
2022-12-21T01:05:51.497Z,26.37
2022-12-21T01:08:19.957Z,25.27
2022-12-21T01:10:46.689Z,22.57
2022-12-21T01:13:14.010Z,30.77
2022-12-21T01:15:42.149Z,25.27
2022-12-21T01:18:09.655Z,24.67
2022-12-21T01:20:41.430Z,23.13
2022-12-21T01:23:08.508Z,24.80
2022-12-21T01:25:36.422Z,27.10
2022-12-21T01:28:03.788Z,25.10
2022-12-21T01:30:30.267Z,28.43
2022-12-21T01:32:56.620Z,25.73
2022-12-21T01:35:23.262Z,24.60
2022-12-21T01:37:49.607Z,23.43
2022-12-21T01:40:15.992Z,24.27
2022-12-21T01:42:42.323Z,25.60
2022-12-21T01:45:30.184Z,25.40
2022-12-21T01:48:04.390Z,24.37
2022-12-21T01:50:35.898Z,31.70
2022-12-21T01:53:08.281Z,28.10
2022-12-21T01:55:36.144Z,26.10
2022-12-21T01:58:05.077Z,29.87
2022-12-21T02:00:31.419Z,31.97
2022-12-21T02:03:01.685Z,33.13
2022-12-21T02:05:34.079Z,37.60
2022-12-21T02:08:03.313Z,33.70
2022-12-21T02:10:30.354Z,39.27
2022-12-21T02:13:01.841Z,28.67
2022-12-21T02:15:51.212Z,31.17
2022-12-21T02:18:39.687Z,32.90
2022-12-21T02:21:14.901Z,37.27
2022-12-21T02:23:49.054Z,30.07
2022-12-21T02:26:26.418Z,30.43
2022-12-21T02:29:12.796Z,31.63
2022-12-21T02:31:51.046Z,32.07
2022-12-21T02:34:44.699Z,30.77
2022-12-21T02:37:29.885Z,24.97
2022-12-21T02:40:01.605Z,33.57
2022-12-21T02:43:05.020Z,29.70
2022-12-21T02:45:38.405Z,32.27
2022-12-21T02:48:17.982Z,31.03
2022-12-21T02:50:50.456Z,25.40
2022-12-21T02:53:23.001Z,38.57
2022-12-21T02:55:49.369Z,24.20
2022-12-21T02:58:21.763Z,30.60
2022-12-21T03:01:07.917Z,29.27
2022-12-21T03:03:49.925Z,31.30
2022-12-21T03:06:29.991Z,34.80
2022-12-21T03:09:14.845Z,37.20
2022-12-21T03:12:07.077Z,37.30
2022-12-21T03:14:48.819Z,35.83
2022-12-21T03:17:33.539Z,35.43
2022-12-21T03:20:25.018Z,42.20
2022-12-21T03:22:58.467Z,53.50
2022-12-21T03:25:45.814Z,50.93
2022-12-21T03:28:20.298Z,46.40
2022-12-21T03:30:52.349Z,54.43
2022-12-21T03:33:23.591Z,55.13
2022-12-21T03:35:55.933Z,58.53
2022-12-21T03:38:27.406Z,56.70
2022-12-21T03:40:58.362Z,59.83
2022-12-21T03:43:30.787Z,54.13
2022-12-21T03:46:04.391Z,51.00
2022-12-21T03:48:40.184Z,50.63
2022-12-21T03:51:16.413Z,47.40
2022-12-21T03:53:51.900Z,52.83
2022-12-21T03:56:26.331Z,49.80
2022-12-21T03:58:52.711Z,57.73
2022-12-21T04:01:32.936Z,57.37
2022-12-21T04:04:06.069Z,69.90
2022-12-21T04:06:35.456Z,45.70
2022-12-21T04:09:05.285Z,54.77
2022-12-21T04:11:54.989Z,33.50
2022-12-21T04:14:21.814Z,41.97
2022-12-21T04:16:48.694Z,34.87
2022-12-21T04:19:38.016Z,38.40
2022-12-21T04:22:04.946Z,30.93
2022-12-21T04:24:50.013Z,29.20
2022-12-21T04:27:34.695Z,35.87
2022-12-21T04:30:01.051Z,38.73
2022-12-21T04:32:27.411Z,40.67
2022-12-21T04:34:53.818Z,36.67
2022-12-21T04:37:32.129Z,36.27
2022-12-21T04:39:59.628Z,35.00
2022-12-21T04:42:26.280Z,40.87
2022-12-21T04:44:52.881Z,31.27
2022-12-21T04:47:19.778Z,32.83
2022-12-21T04:49:46.752Z,28.93
2022-12-21T04:52:13.197Z,31.80
2022-12-21T04:54:39.538Z,28.03
2022-12-21T04:57:05.884Z,36.97
2022-12-21T04:59:32.251Z,32.00
2022-12-21T05:01:58.783Z,34.10
2022-12-21T05:04:25.398Z,33.00
2022-12-21T05:06:51.752Z,31.83
2022-12-21T05:11:45.965Z,31.13
2022-12-21T05:14:12.379Z,33.77
2022-12-21T05:16:41.444Z,30.27
2022-12-21T05:19:07.904Z,30.73
2022-12-21T05:21:34.395Z,31.13
2022-12-21T05:24:00.736Z,35.17
2022-12-21T05:26:27.088Z,29.23
2022-12-21T05:28:53.758Z,32.37
2022-12-21T05:31:20.444Z,29.30
2022-12-21T05:33:46.943Z,29.27
2022-12-21T05:36:15.971Z,28.57
2022-12-21T05:38:42.675Z,23.33
2022-12-21T05:41:10.544Z,20.97
2022-12-21T05:43:36.906Z,20.97
2022-12-21T05:46:05.235Z,17.40
2022-12-21T05:48:32.686Z,15.50
2022-12-21T05:50:59.284Z,12.23
2022-12-21T05:53:25.759Z,13.37
2022-12-21T05:55:52.998Z,23.73
2022-12-21T05:58:20.037Z,23.43
2022-12-21T06:00:46.991Z,29.73
2022-12-21T06:03:13.371Z,31.37
2022-12-21T06:05:39.760Z,27.63
2022-12-21T06:08:06.221Z,25.63
2022-12-21T06:10:32.566Z,26.00
2022-12-21T06:12:58.921Z,34.00
2022-12-21T06:15:25.393Z,32.83
2022-12-21T06:17:51.951Z,32.33
2022-12-21T06:20:18.463Z,36.33
2022-12-21T06:22:45.390Z,41.20
2022-12-21T06:25:11.813Z,37.53
2022-12-21T06:27:38.141Z,38.63
2022-12-21T06:30:05.329Z,35.87
2022-12-21T06:32:31.678Z,45.70
2022-12-21T06:34:58.031Z,38.23
2022-12-21T06:37:24.396Z,43.80
2022-12-21T06:39:50.731Z,42.90
2022-12-21T06:42:17.073Z,46.23
2022-12-21T06:44:43.475Z,42.40
2022-12-21T06:47:09.846Z,47.77
2022-12-21T06:49:36.214Z,47.47
2022-12-21T06:52:02.554Z,56.63
2022-12-21T06:54:28.875Z,53.90
2022-12-21T06:56:55.732Z,48.53
2022-12-21T06:59:22.097Z,40.57
2022-12-21T07:01:48.495Z,39.20
2022-12-21T07:04:15.022Z,39.67
2022-12-21T07:06:42.479Z,35.63
2022-12-21T07:09:08.866Z,45.30
2022-12-21T07:11:35.224Z,33.93
2022-12-21T07:14:01.732Z,39.17
2022-12-21T07:16:28.141Z,35.63
2022-12-21T07:18:54.737Z,37.57
2022-12-21T07:21:22.548Z,40.90
2022-12-21T07:23:49.973Z,32.70
2022-12-21T07:26:19.360Z,33.53
2022-12-21T07:28:46.916Z,38.13
2022-12-21T07:31:16.951Z,38.93
2022-12-21T07:33:43.681Z,39.70
2022-12-21T07:36:10.752Z,37.23
2022-12-21T07:38:38.950Z,33.43
2022-12-21T07:41:08.208Z,37.03
2022-12-21T07:43:35.695Z,31.27
2022-12-21T07:46:13.130Z,38.50
2022-12-21T07:48:39.556Z,45.23
2022-12-21T07:51:06.923Z,40.03
2022-12-21T07:53:34.705Z,37.97
2022-12-21T07:56:03.174Z,49.97
2022-12-21T07:58:29.530Z,46.17
2022-12-21T08:00:59.944Z,42.90
2022-12-21T08:03:29.224Z,40.87
2022-12-21T08:05:55.691Z,32.90
2022-12-21T08:08:22.009Z,37.23
2022-12-21T08:10:48.357Z,33.40
2022-12-21T08:13:14.703Z,36.87
2022-12-21T08:15:41.067Z,37.43
2022-12-21T08:18:10.635Z,31.77
2022-12-21T08:20:37.315Z,38.37
2022-12-21T08:23:03.676Z,35.43
2022-12-21T08:25:30.918Z,35.63
2022-12-21T08:27:57.260Z,37.50
2022-12-21T08:30:23.700Z,42.83
2022-12-21T08:32:50.266Z,30.77
2022-12-21T08:35:16.963Z,37.83
2022-12-21T08:37:43.277Z,37.77
2022-12-21T08:40:10.122Z,31.33
2022-12-21T08:42:36.449Z,39.03
2022-12-21T08:45:02.908Z,32.80
2022-12-21T08:47:29.269Z,34.43
2022-12-21T08:49:55.650Z,31.17
2022-12-21T08:52:22.064Z,32.40
2022-12-21T08:54:48.423Z,35.03
2022-12-21T08:57:14.751Z,28.07
2022-12-21T08:59:46.413Z,28.80
2022-12-21T09:02:15.080Z,29.17
2022-12-21T09:04:41.662Z,31.43
2022-12-21T09:07:08.094Z,28.97
2022-12-21T09:09:34.724Z,27.33
2022-12-21T09:12:01.538Z,34.00
2022-12-21T09:14:28.859Z,38.63
2022-12-21T09:16:55.380Z,30.77
2022-12-21T09:19:22.147Z,26.93
2022-12-21T09:21:48.504Z,25.10
2022-12-21T09:24:14.897Z,30.73
2022-12-21T09:26:42.168Z,23.57
2022-12-21T09:29:10.952Z,36.07
2022-12-21T09:31:37.440Z,37.83
2022-12-21T09:34:03.860Z,34.30
2022-12-21T09:36:30.370Z,32.13
2022-12-21T09:38:57.408Z,35.30
2022-12-21T09:41:30.476Z,38.83
2022-12-21T09:44:21.771Z,39.13
2022-12-21T09:46:52.191Z,39.80
2022-12-21T09:49:22.559Z,39.43
2022-12-21T09:51:58.788Z,35.00
2022-12-21T09:54:36.795Z,37.00
2022-12-21T09:57:06.922Z,34.00
2022-12-21T09:59:33.290Z,36.53
2022-12-21T10:02:34.150Z,40.13
2022-12-21T10:05:20.986Z,49.50
2022-12-21T10:08:00.795Z,36.63
2022-12-21T10:10:39.996Z,35.83
2022-12-21T10:13:41.350Z,34.30
2022-12-21T10:16:28.531Z,40.10
2022-12-21T10:19:32.905Z,52.93
2022-12-21T10:22:14.094Z,51.43
2022-12-21T10:24:54.593Z,51.43
2022-12-21T10:27:22.850Z,57.77
2022-12-21T10:29:57.786Z,60.23
2022-12-21T10:32:35.314Z,61.17
2022-12-21T10:35:28.813Z,56.47
2022-12-21T10:37:56.237Z,61.70
2022-12-21T10:40:27.562Z,62.53
2022-12-21T10:42:54.852Z,50.43
2022-12-21T10:45:26.808Z,49.43
2022-12-21T10:47:54.303Z,54.17
2022-12-21T10:50:33.321Z,52.53
2022-12-21T10:53:16.444Z,45.77
2022-12-21T10:55:44.673Z,59.00
2022-12-21T10:58:11.032Z,58.00
2022-12-21T11:00:48.533Z,42.00
2022-12-21T11:03:29.162Z,44.70
2022-12-21T11:05:56.726Z,36.90
2022-12-21T11:08:26.859Z,44.63
2022-12-21T11:10:59.593Z,41.30
2022-12-21T11:13:28.112Z,35.93
2022-12-21T11:16:13.305Z,37.93
2022-12-21T11:18:46.920Z,25.53
2022-12-21T11:21:13.215Z,28.17
2022-12-21T11:23:39.932Z,37.27
2022-12-21T11:26:16.087Z,21.70
2022-12-21T11:28:43.151Z,22.67
2022-12-21T11:31:09.895Z,28.87
2022-12-21T11:33:36.442Z,24.17
2022-12-21T11:36:12.652Z,26.33
2022-12-21T11:38:40.047Z,23.40
2022-12-21T11:41:16.626Z,17.50
2022-12-21T11:43:50.839Z,18.77
2022-12-21T11:46:49.231Z,27.53
2022-12-21T11:49:35.196Z,23.30
2022-12-21T11:52:07.406Z,12.20
2022-12-21T11:54:36.840Z,18.13
2022-12-21T11:57:06.058Z,18.43
2022-12-21T11:59:38.600Z,9.97
2022-12-21T12:02:15.088Z,16.47
2022-12-21T12:05:04.805Z,16.33
2022-12-21T12:07:55.370Z,11.30
2022-12-21T12:10:52.403Z,15.87
2022-12-21T12:13:41.533Z,11.47
2022-12-21T12:16:14.666Z,20.20
2022-12-21T12:18:58.013Z,12.73
2022-12-21T12:21:39.471Z,18.10
2022-12-21T12:24:30.487Z,9.07
2022-12-21T12:27:20.296Z,14.30
2022-12-21T12:30:13.348Z,14.83
2022-12-21T12:33:06.505Z,16.07
2022-12-21T12:35:35.553Z,25.50
2022-12-21T12:38:32.846Z,24.93
2022-12-21T12:41:22.001Z,15.83
2022-12-21T12:44:16.115Z,18.90
2022-12-21T12:47:07.491Z,27.60
2022-12-21T12:49:54.839Z,19.33
2022-12-21T12:52:54.064Z,31.73
2022-12-21T12:55:39.952Z,22.23
2022-12-21T12:58:23.381Z,23.50
2022-12-21T13:01:17.696Z,26.03
2022-12-21T13:04:17.485Z,23.70
2022-12-21T13:06:53.069Z,19.10
2022-12-21T13:09:29.285Z,16.10
2022-12-21T13:12:21.913Z,22.83
2022-12-21T13:14:57.309Z,17.30
2022-12-21T13:17:38.799Z,14.73
2022-12-21T13:20:07.160Z,14.27
2022-12-21T13:22:37.105Z,16.73
2022-12-21T13:25:19.323Z,14.00
2022-12-21T13:27:47.744Z,18.27
2022-12-21T13:30:20.287Z,18.30
2022-12-21T13:32:54.567Z,19.70
2022-12-21T13:35:35.678Z,16.53
2022-12-21T13:38:09.739Z,8.70
2022-12-21T13:40:43.064Z,11.00
2022-12-21T13:43:19.646Z,9.47
2022-12-21T13:45:55.926Z,14.93
2022-12-21T13:48:29.560Z,16.30
2022-12-21T13:51:27.079Z,11.57
2022-12-21T13:54:21.323Z,10.03
2022-12-21T13:56:53.783Z,6.30
2022-12-21T13:59:44.853Z,10.40
2022-12-21T14:02:47.563Z,6.23
2022-12-21T14:05:20.039Z,10.67
2022-12-21T14:08:04.899Z,6.80
2022-12-21T14:11:11.948Z,8.33
2022-12-21T14:13:47.473Z,5.33
2022-12-21T14:16:17.970Z,6.33
2022-12-21T14:18:45.988Z,7.70
2022-12-21T14:21:12.305Z,12.83
2022-12-21T14:23:51.103Z,6.67
2022-12-21T14:26:43.402Z,5.87
2022-12-21T14:29:36.489Z,6.23
2022-12-21T14:32:13.399Z,5.77
2022-12-21T14:34:51.737Z,8.07
2022-12-21T14:37:21.910Z,5.40
2022-12-21T14:39:48.219Z,9.13
2022-12-21T14:42:37.032Z,5.47
2022-12-21T14:45:12.812Z,7.70
2022-12-21T14:47:41.084Z,5.80
2022-12-21T14:50:19.621Z,12.03
2022-12-21T14:52:58.321Z,5.17
2022-12-21T14:55:36.940Z,9.40
2022-12-21T14:58:43.136Z,6.77
2022-12-21T15:01:13.409Z,5.77
2022-12-21T15:03:47.795Z,5.40
2022-12-21T15:06:42.923Z,6.80
2022-12-21T15:09:21.245Z,9.27
2022-12-21T15:11:55.856Z,7.50
2022-12-21T15:14:29.902Z,6.57
2022-12-21T15:17:00.713Z,7.60
2022-12-21T15:19:42.515Z,7.20
2022-12-21T15:22:33.666Z,6.73
2022-12-21T15:25:13.725Z,13.27
2022-12-21T15:27:59.142Z,11.93
2022-12-21T15:30:35.798Z,10.77
2022-12-21T15:33:15.665Z,9.77
2022-12-21T15:35:44.756Z,8.83
2022-12-21T15:38:30.194Z,8.17
2022-12-21T15:41:06.070Z,7.27
2022-12-21T15:43:57.770Z,7.13
2022-12-21T15:46:41.450Z,9.33
2022-12-21T15:49:08.699Z,9.30
2022-12-21T15:51:40.680Z,9.53
2022-12-21T15:54:17.888Z,7.30
2022-12-21T15:56:54.352Z,9.00
2022-12-21T15:59:30.191Z,9.53
2022-12-21T16:01:58.103Z,7.13
2022-12-21T16:04:27.619Z,6.40
2022-12-21T16:06:59.398Z,8.07
2022-12-21T16:09:28.338Z,7.40
2022-12-21T16:12:19.974Z,9.60
2022-12-21T16:14:41.014Z,9.50
2022-12-21T16:17:23.683Z,6.53
2022-12-21T16:19:55.326Z,6.00
2022-12-21T16:22:24.997Z,5.87
2022-12-21T16:25:29.374Z,5.90
2022-12-21T16:27:47.924Z,5.63
2022-12-21T16:30:15.115Z,5.40
2022-12-21T16:32:41.469Z,12.20
2022-12-21T16:35:19.098Z,5.77
2022-12-21T16:37:45.865Z,4.97
2022-12-21T16:40:22.105Z,6.50
2022-12-21T16:42:52.340Z,10.83
2022-12-21T16:45:21.673Z,5.00
2022-12-21T16:48:16.051Z,5.37
2022-12-21T16:50:54.448Z,5.73
2022-12-21T16:53:36.102Z,5.47
2022-12-21T16:56:17.923Z,5.67
2022-12-21T16:58:54.983Z,6.33
2022-12-21T17:01:40.336Z,7.43
2022-12-21T17:04:30.163Z,7.03
2022-12-21T17:06:59.728Z,7.97
2022-12-21T17:09:29.009Z,5.60
2022-12-21T17:12:03.142Z,6.07
2022-12-21T17:14:31.924Z,6.63
2022-12-21T17:17:19.356Z,6.47
2022-12-21T17:20:15.464Z,5.77
2022-12-21T17:22:55.679Z,5.30
2022-12-21T17:25:22.058Z,5.30
2022-12-21T17:27:59.858Z,5.30
2022-12-21T17:30:29.985Z,5.20
2022-12-21T17:32:56.709Z,5.57
2022-12-21T17:35:23.830Z,5.30
2022-12-21T17:37:54.672Z,5.27
2022-12-21T17:40:23.816Z,4.90
2022-12-21T17:42:50.582Z,4.87
2022-12-21T17:45:19.321Z,7.67
2022-12-21T17:47:47.265Z,6.77
2022-12-21T17:50:43.039Z,5.53
2022-12-21T17:53:20.859Z,4.57
2022-12-21T17:55:48.163Z,4.03
2022-12-21T17:58:14.770Z,3.20
2022-12-21T18:00:42.697Z,3.67
2022-12-21T18:03:18.594Z,2.90
2022-12-21T18:05:45.366Z,6.83
2022-12-21T18:08:13.299Z,4.80
2022-12-21T18:10:41.094Z,3.23
2022-12-21T18:13:07.764Z,3.30
2022-12-21T18:15:36.952Z,6.20
2022-12-21T18:18:07.596Z,5.23
2022-12-21T18:20:40.343Z,3.13
2022-12-21T18:23:16.151Z,3.77
2022-12-21T18:25:43.471Z,3.03
2022-12-21T18:28:15.858Z,3.10
2022-12-21T18:30:45.590Z,3.13
2022-12-21T18:33:14.961Z,3.73
2022-12-21T18:35:42.018Z,3.00
2022-12-21T18:38:16.575Z,3.07
2022-12-21T18:40:42.944Z,3.93
2022-12-21T18:43:27.579Z,6.00
2022-12-21T18:46:01.613Z,6.60
2022-12-21T18:48:29.373Z,3.77
2022-12-21T18:50:55.947Z,3.60
2022-12-21T18:53:22.794Z,3.67
2022-12-21T18:55:49.775Z,3.70
2022-12-21T18:58:16.222Z,3.60
2022-12-21T19:00:44.867Z,3.47
2022-12-21T19:03:26.209Z,3.73
2022-12-21T19:05:54.477Z,4.03
2022-12-21T19:08:22.442Z,4.63
2022-12-21T19:10:49.306Z,4.40
2022-12-21T19:13:31.001Z,5.70
2022-12-21T19:16:06.218Z,3.47
2022-12-21T19:18:40.379Z,3.87
2022-12-21T19:21:07.229Z,3.97
2022-12-21T19:23:33.697Z,3.67
2022-12-21T19:26:00.075Z,3.47
2022-12-21T19:28:26.450Z,8.57
2022-12-21T19:30:52.845Z,4.17
2022-12-21T19:33:19.394Z,4.77
2022-12-21T19:35:50.257Z,4.20
2022-12-21T19:38:23.005Z,5.20
2022-12-21T19:40:53.279Z,5.60
2022-12-21T19:43:20.416Z,4.77
2022-12-21T19:45:47.017Z,4.60
2022-12-21T19:48:37.071Z,6.67
2022-12-21T19:51:09.488Z,5.87
2022-12-21T19:53:44.741Z,11.60
2022-12-21T19:56:20.273Z,8.43
2022-12-21T19:58:48.983Z,4.03
2022-12-21T20:01:29.931Z,4.13
2022-12-21T20:03:58.334Z,4.07
2022-12-21T20:06:25.787Z,3.53
2022-12-21T20:08:52.189Z,4.00
2022-12-21T20:11:20.490Z,4.53
2022-12-21T20:13:48.692Z,5.67
2022-12-21T20:16:16.582Z,5.73
2022-12-21T20:18:43.915Z,4.77
2022-12-21T20:21:21.738Z,5.47
2022-12-21T20:23:52.145Z,3.70
2022-12-21T20:26:26.431Z,4.90
2022-12-21T20:28:56.151Z,5.63
2022-12-21T20:31:23.010Z,5.47
2022-12-21T20:33:50.955Z,5.40
2022-12-21T20:36:37.312Z,7.23
2022-12-21T20:39:12.678Z,5.07
2022-12-21T20:41:57.793Z,5.60
2022-12-21T20:44:24.410Z,4.83
2022-12-21T20:46:51.006Z,5.43
2022-12-21T20:49:24.647Z,5.73
2022-12-21T20:51:51.846Z,4.43
2022-12-21T20:54:20.513Z,6.03
2022-12-21T20:56:49.109Z,4.93
2022-12-21T20:59:16.352Z,4.90
2022-12-21T21:01:58.142Z,4.60
2022-12-21T21:04:27.757Z,5.33
2022-12-21T21:06:54.492Z,4.90
2022-12-21T21:09:31.921Z,5.73
2022-12-21T21:12:00.868Z,8.70
2022-12-21T21:14:27.290Z,6.27
2022-12-21T21:16:55.308Z,5.50
2022-12-21T21:19:43.331Z,6.60
2022-12-21T21:22:56.471Z,6.03
2022-12-21T21:25:36.136Z,6.23
2022-12-21T21:28:23.896Z,7.77
2022-12-21T21:30:53.064Z,8.20
2022-12-21T21:33:20.137Z,6.97
2022-12-21T21:35:49.784Z,7.40
2022-12-21T21:38:44.468Z,8.67
2022-12-21T21:41:32.962Z,7.97
2022-12-21T21:44:30.590Z,5.93
2022-12-21T21:46:58.977Z,6.17
2022-12-21T21:49:32.212Z,6.60
2022-12-21T21:51:58.619Z,7.13
2022-12-21T21:54:25.566Z,5.33
2022-12-21T21:56:54.589Z,5.40
2022-12-21T21:59:26.043Z,5.63
2022-12-21T22:01:55.752Z,5.27
2022-12-21T22:04:22.948Z,6.00
2022-12-21T22:06:50.456Z,6.33
2022-12-21T22:09:16.814Z,6.83
2022-12-21T22:11:46.455Z,4.83
2022-12-21T22:14:21.904Z,5.10
2022-12-21T22:19:55.322Z,7.23
2022-12-21T22:22:41.718Z,5.27
2022-12-21T22:25:35.063Z,6.53
2022-12-21T22:28:21.623Z,5.70
2022-12-21T22:31:07.117Z,5.70
2022-12-21T22:33:33.501Z,6.43
2022-12-21T22:36:18.371Z,4.33
2022-12-21T22:39:03.106Z,8.13
2022-12-21T22:41:47.933Z,6.17
2022-12-21T22:44:14.290Z,6.17
2022-12-21T22:46:40.729Z,5.20
2022-12-21T22:49:07.084Z,6.23
2022-12-21T22:51:33.512Z,6.07
2022-12-21T22:54:03.113Z,9.20
2022-12-21T22:56:34.041Z,6.30
2022-12-21T22:59:08.559Z,5.03
2022-12-21T23:01:35.691Z,6.53
2022-12-21T23:04:03.512Z,7.17
2022-12-21T23:06:30.073Z,6.93
2022-12-21T23:08:56.425Z,7.50
2022-12-21T23:11:35.104Z,6.07
2022-12-21T23:14:35.374Z,6.47
2022-12-21T23:17:05.629Z,5.27
2022-12-21T23:19:31.977Z,6.37
2022-12-21T23:22:17.110Z,5.93
2022-12-21T23:25:02.812Z,6.30
2022-12-21T23:27:53.683Z,5.90
2022-12-21T23:31:01.373Z,6.97
2022-12-21T23:33:48.709Z,6.00
2022-12-21T23:36:39.028Z,5.60
2022-12-21T23:39:41.617Z,5.67
2022-12-21T23:42:36.406Z,5.00
2022-12-21T23:45:03.163Z,5.10
2022-12-21T23:47:47.754Z,5.20
2022-12-21T23:50:32.491Z,5.73
2022-12-21T23:53:17.756Z,6.60
2022-12-21T23:56:03.041Z,6.03
2022-12-21T23:58:47.805Z,6.30
